Terminal Aerodrome Forecast
Issued by NWS

Home | Current Version | Previous Version | Text Only | Print | Product List | Glossary On
Versions: 1 2 3 4 5 6 7 8 9 10 11 12 13 14 15 16
000
FTUS42 KTBW 311700
TAFRSW
TAF
KRSW 311736Z 3118/0118 25006KT P6SM VCTS SCT050CB SCT250
     FM010000 21005KT P6SM SCT040 SCT100 BKN250
     FM010400 00000KT P6SM FEW035 SCT100 SCT250
     FM011500 VRB03KT P6SM VCTS SCT035CB BKN100=

USA.gov is the U.S. government's official web portal to all federal, state and local government web resources and services.